Time;durP1;ratioP1;P1;durP2;ratioP2;P2;SDS_P1;SDS_P2;PMS_P1;PMS_P2;Temp;Humidity;BMP_temperature;BMP_pressure;BME280_temperature;BME280_humidity;BME280_pressure;Samples;Min_cycle;Max_cycle;Signal;HPM_P1;HPM_P2
2023/06/10 00:00:37;;;;;;;10.85;9.18;;;21.90;96.00;;;;;;5074523;28;20029;-76
2023/06/10 00:03:03;;;;;;;10.57;8.93;;;21.90;96.30;;;;;;5074480;28;20483;-75
2023/06/10 00:05:32;;;;;;;11.40;10.20;;;21.90;96.00;;;;;;5074550;28;20035;-76
2023/06/10 00:07:57;;;;;;;9.82;8.93;;;21.90;96.00;;;;;;5074539;28;20035;-75
2023/06/10 00:10:24;;;;;;;10.90;9.20;;;21.90;96.10;;;;;;5074407;28;20532;-75
2023/06/10 00:12:51;;;;;;;11.10;9.27;;;21.90;95.90;;;;;;5074187;28;20031;-75
2023/06/10 00:15:17;;;;;;;9.50;8.48;;;21.90;95.70;;;;;;5074064;28;20020;-75
2023/06/10 00:17:43;;;;;;;10.65;8.88;;;21.90;95.60;;;;;;5074303;28;20031;-76
2023/06/10 00:20:11;;;;;;;8.50;7.63;;;21.90;95.60;;;;;;5074220;28;20016;-75
2023/06/10 00:22:39;;;;;;;10.57;8.60;;;21.90;95.60;;;;;;5074027;28;20048;-76
2023/06/10 00:25:06;;;;;;;9.20;8.40;;;21.90;95.60;;;;;;5073892;28;20012;-75
2023/06/10 00:27:34;;;;;;;9.93;8.05;;;21.90;95.50;;;;;;5073927;28;20044;-76
2023/06/10 00:30:06;;;;;;;11.15;8.40;;;21.90;95.40;;;;;;5073884;28;20072;-75
2023/06/10 00:32:33;;;;;;;9.40;8.48;;;21.80;95.50;;;;;;5073744;28;20035;-75
2023/06/10 00:34:58;;;;;;;13.77;9.50;;;21.80;95.50;;;;;;5073831;28;20045;-75
2023/06/10 00:37:24;;;;;;;9.13;8.27;;;21.80;95.40;;;;;;5073471;28;20035;-75
2023/06/10 00:39:50;;;;;;;11.38;8.43;;;21.80;95.40;;;;;;5073179;28;20141;-75
2023/06/10 00:42:15;;;;;;;11.38;9.52;;;21.80;95.40;;;;;;5073740;28;20017;-76
2023/06/10 00:44:41;;;;;;;11.05;8.73;;;21.80;95.40;;;;;;5073574;28;20039;-75
2023/06/10 00:47:07;;;;;;;11.55;8.90;;;21.80;95.40;;;;;;5073430;28;20382;-75
2023/06/10 00:49:33;;;;;;;9.65;8.73;;;21.70;95.40;;;;;;5073717;28;20036;-75
2023/06/10 00:51:59;;;;;;;10.85;8.60;;;21.70;95.50;;;;;;5073705;28;20013;-75
2023/06/10 00:54:25;;;;;;;10.68;9.57;;;21.70;95.50;;;;;;5073626;28;20029;-75
2023/06/10 00:56:52;;;;;;;10.23;9.23;;;21.60;95.50;;;;;;5073312;28;20448;-76
2023/06/10 00:59:18;;;;;;;10.55;9.02;;;21.60;95.50;;;;;;5070379;28;20403;-76
2023/06/10 01:01:46;;;;;;;10.07;8.85;;;21.60;95.40;;;;;;5070654;28;20025;-77
2023/06/10 01:04:12;;;;;;;9.05;8.25;;;21.60;95.30;;;;;;5071202;28;20464;-75
2023/06/10 01:07:12;;;;;;;11.57;8.65;;;21.50;95.10;;;;;;5072907;28;20024;-75
2023/06/10 01:09:41;;;;;;;14.23;9.10;;;21.50;95.10;;;;;;5073066;28;20044;-75
2023/06/10 01:12:41;;;;;;;10.55;9.55;;;21.50;95.10;;;;;;5073156;28;20035;-74
2023/06/10 01:15:09;;;;;;;13.27;9.25;;;21.50;95.20;;;;;;5073122;28;20108;-76
2023/06/10 01:17:58;;;;;;;9.95;8.95;;;21.40;95.30;;;;;;5073146;28;20393;-75
2023/06/10 01:20:26;;;;;;;12.98;9.48;;;21.40;95.40;;;;;;5072624;28;20037;-75
2023/06/10 01:22:55;;;;;;;10.45;9.27;;;21.40;95.50;;;;;;5073180;28;20056;-75
2023/06/10 01:25:28;;;;;;;12.63;9.32;;;21.40;95.60;;;;;;5072942;28;20036;-75
2023/06/10 01:28:20;;;;;;;14.13;9.73;;;21.40;95.70;;;;;;5072710;28;20067;-76
2023/06/10 01:31:11;;;;;;;12.63;9.07;;;21.30;95.50;;;;;;5072971;28;20021;-75
2023/06/10 01:33:42;;;;;;;10.43;9.43;;;21.30;95.60;;;;;;5072351;28;20584;-75
2023/06/10 01:36:08;;;;;;;11.15;9.43;;;21.30;95.70;;;;;;5072560;28;20492;-76
2023/06/10 01:38:40;;;;;;;10.48;8.82;;;21.20;95.70;;;;;;5072771;28;20034;-75
2023/06/10 01:41:07;;;;;;;11.02;9.90;;;21.20;95.60;;;;;;5072851;28;20024;-76
2023/06/10 01:43:34;;;;;;;11.95;9.27;;;21.20;95.60;;;;;;5072344;28;20028;-75
2023/06/10 01:46:00;;;;;;;14.65;9.27;;;21.20;95.60;;;;;;5073035;28;20028;-75
2023/06/10 01:48:26;;;;;;;12.82;9.45;;;21.20;95.70;;;;;;5072812;28;20039;-76
2023/06/10 01:50:52;;;;;;;12.77;9.98;;;21.20;95.70;;;;;;5072502;28;20060;-74
2023/06/10 01:53:18;;;;;;;10.20;9.18;;;21.10;95.70;;;;;;5072168;28;20055;-76
2023/06/10 01:55:44;;;;;;;10.45;9.20;;;21.10;95.80;;;;;;5072834;28;20021;-75
2023/06/10 01:58:09;;;;;;;12.00;8.98;;;21.10;95.70;;;;;;5072753;28;20075;-75
2023/06/10 02:00:35;;;;;;;11.90;8.27;;;21.10;95.70;;;;;;5072932;28;20025;-75
2023/06/10 02:03:00;;;;;;;11.25;8.82;;;21.10;95.70;;;;;;5072687;28;20024;-76
2023/06/10 02:05:26;;;;;;;11.05;9.00;;;21.00;95.60;;;;;;5072735;28;20021;-76
2023/06/10 02:07:52;;;;;;;13.15;9.07;;;21.00;95.60;;;;;;5072510;28;20044;-75
2023/06/10 02:10:17;;;;;;;10.38;8.88;;;21.00;95.70;;;;;;5072754;28;20380;-75
2023/06/10 02:12:43;;;;;;;15.98;9.40;;;20.90;95.70;;;;;;5072670;28;20036;-76
2023/06/10 02:15:09;;;;;;;13.43;9.80;;;20.90;95.70;;;;;;5072582;28;20077;-75
2023/06/10 02:17:34;;;;;;;15.93;10.00;;;20.90;95.90;;;;;;5072655;28;20107;-76
2023/06/10 02:20:06;;;;;;;14.35;9.50;;;20.80;96.00;;;;;;5072689;28;20031;-76
2023/06/10 02:22:32;;;;;;;11.27;9.93;;;20.80;96.00;;;;;;5072457;28;20028;-76
2023/06/10 02:24:57;;;;;;;10.43;9.52;;;20.80;96.00;;;;;;5072330;28;20019;-75
2023/06/10 02:27:23;;;;;;;11.60;10.38;;;20.80;96.00;;;;;;5072513;28;20025;-76
2023/06/10 02:29:49;;;;;;;11.02;9.57;;;20.80;96.00;;;;;;5072668;28;20103;-75
2023/06/10 02:32:14;;;;;;;12.27;9.20;;;20.70;96.00;;;;;;5072493;28;20114;-76
2023/06/10 02:34:42;;;;;;;13.32;10.18;;;20.70;96.00;;;;;;5072228;28;20503;-76
2023/06/10 02:37:08;;;;;;;11.65;10.52;;;20.70;96.10;;;;;;5072012;28;20086;-74
2023/06/10 02:39:34;;;;;;;11.38;10.20;;;20.70;96.10;;;;;;5072225;28;20028;-75
2023/06/10 02:42:00;;;;;;;13.85;10.38;;;20.70;96.10;;;;;;5072386;28;20020;-76
2023/06/10 02:44:25;;;;;;;12.25;10.30;;;20.70;96.20;;;;;;5072557;28;20172;-75
2023/06/10 02:46:51;;;;;;;11.43;10.35;;;20.70;96.30;;;;;;5072403;28;20031;-74
2023/06/10 02:49:17;;;;;;;13.70;9.50;;;20.60;96.30;;;;;;5072194;28;20396;-76
2023/06/10 02:51:43;;;;;;;12.32;10.00;;;20.70;96.40;;;;;;5072029;28;20436;-76
2023/06/10 02:54:08;;;;;;;12.48;11.27;;;20.70;96.30;;;;;;5072363;28;20089;-75
2023/06/10 02:56:34;;;;;;;10.85;9.77;;;20.70;96.30;;;;;;5072333;28;20029;-75
2023/06/10 02:59:00;;;;;;;11.35;10.23;;;20.70;96.30;;;;;;5072109;28;20480;-76
2023/06/10 03:01:26;;;;;;;14.50;11.18;;;20.70;96.40;;;;;;5072864;28;20154;-76
2023/06/10 03:03:52;;;;;;;12.13;10.93;;;20.70;96.30;;;;;;5075843;28;20497;-75
2023/06/10 03:06:18;;;;;;;11.93;10.73;;;20.70;96.30;;;;;;5075587;28;20017;-75
2023/06/10 03:08:45;;;;;;;14.32;10.98;;;20.70;96.30;;;;;;5075252;28;20040;-75
2023/06/10 03:11:11;;;;;;;12.02;10.82;;;20.70;96.30;;;;;;5075383;28;20465;-76
2023/06/10 03:13:38;;;;;;;11.73;10.63;;;20.70;96.30;;;;;;5075625;28;20036;-75
2023/06/10 03:16:04;;;;;;;12.75;10.70;;;20.60;96.20;;;;;;5075533;28;20025;-75
2023/06/10 03:18:30;;;;;;;12.98;11.10;;;20.60;96.20;;;;;;5075456;28;20161;-74
2023/06/10 03:20:56;;;;;;;12.57;10.30;;;20.60;96.30;;;;;;5074905;28;20067;-76
2023/06/10 03:23:23;;;;;;;13.30;10.60;;;20.60;96.40;;;;;;5073975;28;20039;-76
2023/06/10 03:25:48;;;;;;;11.98;10.50;;;20.60;96.50;;;;;;5074933;28;20025;-74
2023/06/10 03:28:14;;;;;;;13.65;10.95;;;20.60;96.40;;;;;;5074864;28;20043;-76
2023/06/10 03:30:40;;;;;;;13.20;10.70;;;20.60;96.30;;;;;;5074804;28;20063;-75
2023/06/10 03:33:06;;;;;;;17.40;11.00;;;20.60;96.20;;;;;;5074979;28;20017;-76
2023/06/10 03:35:32;;;;;;;11.70;9.95;;;20.60;96.10;;;;;;5074657;28;20048;-75
2023/06/10 03:37:58;;;;;;;12.50;10.80;;;20.60;96.10;;;;;;5074892;28;20028;-76
2023/06/10 03:40:24;;;;;;;14.13;10.32;;;20.60;96.10;;;;;;5074850;28;20095;-76
2023/06/10 03:42:50;;;;;;;11.60;10.40;;;20.60;96.00;;;;;;5075203;28;20096;-76
2023/06/10 03:45:16;;;;;;;13.02;11.68;;;20.60;95.70;;;;;;5074762;28;20044;-75
2023/06/10 03:47:43;;;;;;;17.23;11.35;;;20.50;95.60;;;;;;5074680;28;20060;-75
2023/06/10 03:50:09;;;;;;;16.55;10.95;;;20.50;95.60;;;;;;5074670;28;20103;-75
2023/06/10 03:52:39;;;;;;;12.70;11.40;;;20.40;95.80;;;;;;5075024;28;20031;-76
2023/06/10 03:55:05;;;;;;;12.32;11.13;;;20.40;96.00;;;;;;5074966;28;20032;-75
2023/06/10 03:57:31;;;;;;;14.48;10.13;;;20.40;96.20;;;;;;5074664;28;20103;-76
2023/06/10 03:59:57;;;;;;;11.52;10.27;;;20.40;96.30;;;;;;5074195;28;20113;-75
2023/06/10 04:02:23;;;;;;;12.68;10.90;;;20.40;96.40;;;;;;5074485;28;20350;-75
2023/06/10 04:04:49;;;;;;;13.68;10.65;;;20.40;96.30;;;;;;5074506;28;20082;-76
2023/06/10 04:07:14;;;;;;;14.57;10.30;;;20.50;96.30;;;;;;5074367;28;20048;-75
2023/06/10 04:09:40;;;;;;;13.73;10.18;;;20.50;96.30;;;;;;5074435;28;20043;-76
2023/06/10 04:12:08;;;;;;;10.43;9.43;;;20.50;96.40;;;;;;5074565;28;20017;-76
2023/06/10 04:14:37;;;;;;;10.43;9.32;;;20.50;96.40;;;;;;5074392;28;20123;-75
2023/06/10 04:17:06;;;;;;;13.40;9.57;;;20.50;96.40;;;;;;5074355;28;20036;-75
2023/06/10 04:19:32;;;;;;;12.18;10.57;;;20.50;96.50;;;;;;5074213;28;20017;-76
2023/06/10 04:22:00;;;;;;;13.52;9.77;;;20.50;96.60;;;;;;5074000;28;20024;-75
2023/06/10 04:24:26;;;;;;;14.85;10.25;;;20.50;96.60;;;;;;5074079;28;20024;-75
2023/06/10 04:26:51;;;;;;;11.55;10.40;;;20.50;96.60;;;;;;5074016;28;20035;-75
2023/06/10 04:29:17;;;;;;;12.82;11.52;;;20.50;96.80;;;;;;5073784;28;20037;-75
2023/06/10 04:31:43;;;;;;;13.70;10.48;;;20.50;96.90;;;;;;5073986;28;20028;-75
2023/06/10 04:34:08;;;;;;;14.60;9.90;;;20.50;96.80;;;;;;5073731;28;20049;-75
2023/06/10 04:36:34;;;;;;;11.27;10.15;;;20.60;96.70;;;;;;5074071;28;20066;-75
2023/06/10 04:39:00;;;;;;;11.57;10.48;;;20.60;96.60;;;;;;5073766;28;20028;-75
2023/06/10 04:41:27;;;;;;;11.23;9.77;;;20.60;96.50;;;;;;5073934;28;20024;-75
2023/06/10 04:43:53;;;;;;;11.43;10.27;;;20.70;96.50;;;;;;5073839;28;20021;-75
2023/06/10 04:46:19;;;;;;;11.40;10.38;;;20.70;96.60;;;;;;5073449;28;20037;-75
2023/06/10 04:48:46;;;;;;;11.90;10.68;;;20.70;96.70;;;;;;5073365;28;20036;-76
2023/06/10 04:51:13;;;;;;;12.20;11.10;;;20.70;96.70;;;;;;5073428;28;20147;-76
2023/06/10 04:53:39;;;;;;;16.05;10.63;;;20.70;96.70;;;;;;5073630;28;20020;-76
2023/06/10 04:56:04;;;;;;;11.90;10.70;;;20.80;96.60;;;;;;5073355;28;20021;-75
2023/06/10 04:58:30;;;;;;;12.95;10.60;;;20.80;96.50;;;;;;5073032;28;20034;-76
2023/06/10 05:00:56;;;;;;;12.40;10.88;;;20.80;96.50;;;;;;5073384;28;20020;-76
2023/06/10 05:03:21;;;;;;;12.00;10.40;;;20.90;96.50;;;;;;5073160;28;20472;-75
2023/06/10 05:05:47;;;;;;;11.60;10.40;;;20.90;96.40;;;;;;5073436;28;20035;-76
2023/06/10 05:08:12;;;;;;;12.02;10.48;;;21.00;96.40;;;;;;5073207;28;20024;-73
2023/06/10 05:10:38;;;;;;;20.80;11.57;;;21.00;96.40;;;;;;5073171;28;20032;-73
2023/06/10 05:13:04;;;;;;;11.50;10.40;;;21.00;96.40;;;;;;5073253;28;20025;-73
2023/06/10 05:15:30;;;;;;;16.58;10.77;;;21.10;96.40;;;;;;5073043;28;20065;-73
2023/06/10 05:17:58;;;;;;;13.05;10.02;;;21.10;96.40;;;;;;5072917;28;20029;-73
2023/06/10 05:20:25;;;;;;;13.75;10.57;;;21.10;96.20;;;;;;5072797;28;20020;-74
2023/06/10 05:22:50;;;;;;;12.30;10.13;;;21.10;96.10;;;;;;5073136;28;20038;-74
2023/06/10 05:25:16;;;;;;;12.00;10.77;;;21.20;96.10;;;;;;5072450;28;20099;-74
2023/06/10 05:27:42;;;;;;;13.52;10.65;;;21.30;95.90;;;;;;5072765;28;20423;-73
2023/06/10 05:30:10;;;;;;;14.98;10.85;;;21.30;95.90;;;;;;5071444;28;20414;-73
2023/06/10 05:32:36;;;;;;;11.50;10.38;;;21.30;95.80;;;;;;5072669;28;20384;-73
2023/06/10 05:35:03;;;;;;;11.77;10.50;;;21.40;95.80;;;;;;5072492;28;20105;-73
2023/06/10 05:37:29;;;;;;;12.80;10.48;;;21.40;95.80;;;;;;5072707;28;20495;-72
2023/06/10 05:39:55;;;;;;;13.00;10.13;;;21.40;95.80;;;;;;5072626;28;20032;-73
2023/06/10 05:42:20;;;;;;;18.33;10.05;;;21.40;95.80;;;;;;5072844;28;20050;-72
2023/06/10 05:44:46;;;;;;;11.05;9.57;;;21.40;95.80;;;;;;5073176;28;20032;-72
2023/06/10 05:47:11;;;;;;;12.63;10.88;;;21.50;95.80;;;;;;5072162;28;20103;-72
2023/06/10 05:49:37;;;;;;;13.43;9.85;;;21.50;95.90;;;;;;5072063;28;20078;-73
2023/06/10 05:52:03;;;;;;;12.30;10.32;;;21.50;96.00;;;;;;5072393;28;20056;-72
2023/06/10 05:54:29;;;;;;;10.95;9.52;;;21.50;96.00;;;;;;5072415;28;20021;-74
2023/06/10 05:56:54;;;;;;;12.85;10.15;;;21.50;96.00;;;;;;5072030;28;20099;-73
2023/06/10 05:59:20;;;;;;;10.75;9.73;;;21.60;96.10;;;;;;5071897;28;20020;-74
2023/06/10 06:01:46;;;;;;;26.70;10.93;;;21.60;96.10;;;;;;5072616;28;20066;-74
2023/06/10 06:04:11;;;;;;;9.85;8.90;;;21.60;96.00;;;;;;5072295;28;20039;-73
2023/06/10 06:06:40;;;;;;;12.48;9.80;;;21.60;96.00;;;;;;5072391;28;20020;-74
2023/06/10 06:09:05;;;;;;;16.10;11.02;;;21.70;95.90;;;;;;5072024;28;20031;-75
2023/06/10 06:11:31;;;;;;;12.75;9.82;;;21.70;96.00;;;;;;5072357;28;20384;-75
2023/06/10 06:13:57;;;;;;;13.02;10.20;;;21.70;96.20;;;;;;5072376;28;20029;-72
2023/06/10 06:16:23;;;;;;;14.05;9.55;;;21.70;96.20;;;;;;5072538;28;20028;-73
2023/06/10 06:18:48;;;;;;;14.00;9.52;;;21.80;96.30;;;;;;5072575;28;20051;-71
2023/06/10 06:21:14;;;;;;;12.60;9.90;;;21.80;96.40;;;;;;5070319;28;20086;-75
2023/06/10 06:23:40;;;;;;;11.23;10.05;;;21.80;96.50;;;;;;5069251;28;20063;-75
2023/06/10 06:26:05;;;;;;;13.27;9.90;;;21.80;96.40;;;;;;5069656;28;20017;-74
2023/06/10 06:28:31;;;;;;;10.63;8.98;;;21.80;96.30;;;;;;5070440;28;20031;-73
2023/06/10 06:30:57;;;;;;;11.05;9.82;;;21.90;96.20;;;;;;5072078;28;20036;-73
2023/06/10 06:33:23;;;;;;;13.98;10.73;;;21.90;96.20;;;;;;5072471;28;20468;-73
2023/06/10 06:35:48;;;;;;;11.10;10.00;;;21.90;96.10;;;;;;5072337;28;20051;-74
2023/06/10 06:38:14;;;;;;;16.27;10.07;;;21.90;96.20;;;;;;5075966;28;20479;-74
2023/06/10 06:40:40;;;;;;;13.88;10.48;;;22.00;96.20;;;;;;5075927;28;20110;-73
2023/06/10 06:43:06;;;;;;;17.50;10.52;;;22.00;96.10;;;;;;5075758;28;20103;-73
2023/06/10 06:45:33;;;;;;;11.80;10.70;;;22.00;96.00;;;;;;5075976;28;20029;-73
2023/06/10 06:47:59;;;;;;;11.07;10.07;;;22.10;96.10;;;;;;5075913;28;20043;-71
2023/06/10 06:50:25;;;;;;;12.85;10.20;;;22.10;96.10;;;;;;5075995;28;20013;-73
2023/06/10 06:52:51;;;;;;;12.68;10.27;;;22.10;95.90;;;;;;5075507;28;20040;-73
2023/06/10 06:55:16;;;;;;;11.68;10.48;;;22.20;95.80;;;;;;5075477;28;20385;-70
2023/06/10 06:57:42;;;;;;;10.20;8.98;;;22.20;95.70;;;;;;5073993;28;20035;-72
2023/06/10 07:00:08;;;;;;;9.93;9.00;;;22.30;95.90;;;;;;5075619;28;20036;-73
2023/06/10 07:02:35;;;;;;;11.00;9.85;;;22.40;95.80;;;;;;5075351;28;20032;-71
2023/06/10 07:05:01;;;;;;;11.50;10.45;;;22.50;95.80;;;;;;5075690;28;20362;-73
2023/06/10 07:07:27;;;;;;;11.60;9.95;;;22.50;95.70;;;;;;5075033;28;20056;-72
2023/06/10 07:09:52;;;;;;;12.35;9.98;;;22.50;95.60;;;;;;5074712;28;20465;-72
2023/06/10 07:12:18;;;;;;;12.02;10.82;;;22.50;95.40;;;;;;5075172;28;20085;-72
2023/06/10 07:14:44;;;;;;;12.57;10.65;;;22.60;95.20;;;;;;5075429;28;20031;-72
2023/06/10 07:17:10;;;;;;;15.45;10.77;;;22.60;94.90;;;;;;5075165;28;20481;-73
2023/06/10 07:19:35;;;;;;;14.50;10.95;;;22.60;94.80;;;;;;5075068;28;20025;-73
2023/06/10 11:45:17;;;;;;;10.40;3.95;;;24.80;79.80;;;;;;5005799;28;20181;-72
2023/06/10 11:47:56;;;;;;;4.70;3.85;;;24.70;79.30;;;;;;5007289;28;20036;-73
2023/06/10 11:50:34;;;;;;;11.38;4.40;;;24.60;79.80;;;;;;5006594;28;20034;-71
2023/06/10 11:52:59;;;;;;;9.95;3.63;;;24.60;81.10;;;;;;5006459;28;20034;-74
2023/06/10 11:55:46;;;;;;;8.23;4.20;;;24.50;81.10;;;;;;5006909;28;20424;-73
2023/06/10 11:58:20;;;;;;;6.88;3.22;;;24.50;80.90;;;;;;5006609;28;20124;-72
2023/06/10 12:00:51;;;;;;;5.05;3.97;;;24.50;80.90;;;;;;5006256;28;20481;-73
2023/06/10 12:03:17;;;;;;;7.03;4.93;;;24.50;80.90;;;;;;5006544;28;20030;-74
2023/06/10 12:05:56;;;;;;;9.98;3.35;;;24.50;81.90;;;;;;5006643;28;20026;-74
2023/06/10 12:08:23;;;;;;;4.00;3.60;;;24.50;76.40;;;;;;5006459;28;20036;-71
2023/06/10 12:10:49;;;;;;;3.75;3.17;;;24.50;73.30;;;;;;5006479;28;20025;-72
2023/06/10 12:13:15;;;;;;;3.75;3.20;;;24.40;72.80;;;;;;5006466;28;20582;-72
2023/06/10 12:15:40;;;;;;;6.38;3.33;;;24.30;70.90;;;;;;5005935;28;20035;-73
2023/06/10 12:18:06;;;;;;;4.60;3.35;;;24.20;69.20;;;;;;5006519;28;20097;-74
2023/06/10 12:20:36;;;;;;;4.45;3.80;;;24.00;70.50;;;;;;5006417;28;20023;-73
2023/06/10 12:23:10;;;;;;;7.05;4.57;;;23.90;72.30;;;;;;5006237;28;20034;-73
2023/06/10 12:25:38;;;;;;;5.50;4.18;;;23.80;74.50;;;;;;5006146;28;20147;-73
2023/06/10 12:28:04;;;;;;;7.80;4.55;;;23.70;76.20;;;;;;5006076;28;20113;-72
2023/06/10 12:30:30;;;;;;;5.70;4.40;;;23.60;77.40;;;;;;5005942;28;20022;-73
2023/06/10 12:32:56;;;;;;;4.82;4.32;;;23.60;79.00;;;;;;5005937;28;20121;-73
2023/06/10 12:35:28;;;;;;;7.28;4.93;;;23.60;79.70;;;;;;5006221;28;20040;-73
2023/06/10 12:38:00;;;;;;;6.25;4.75;;;23.60;81.70;;;;;;5005336;28;20029;-73
2023/06/10 12:40:31;;;;;;;;;;;23.60;82.70;;;;;;5006057;28;20058;-72
2023/06/10 12:42:57;;;;;;;6.70;4.68;;;23.60;83.50;;;;;;5005668;28;20273;-73
2023/06/10 12:45:34;;;;;;;5.20;4.40;;;23.60;84.50;;;;;;5003198;28;20038;-73
2023/06/10 12:48:07;;;;;;;10.98;4.80;;;23.60;85.30;;;;;;5003200;28;20034;-73
2023/06/10 12:50:33;;;;;;;8.85;4.38;;;23.60;85.50;;;;;;5005620;28;20471;-72
2023/06/10 12:53:00;;;;;;;6.10;4.45;;;23.60;85.80;;;;;;5005930;28;20014;-74
2023/06/10 12:55:26;;;;;;;5.65;5.00;;;23.60;86.40;;;;;;4999246;28;20088;-72
2023/06/10 12:57:52;;;;;;;5.75;4.53;;;23.50;86.70;;;;;;4992842;28;20034;-74
2023/06/10 13:00:18;;;;;;;6.80;4.30;;;23.50;87.20;;;;;;4992694;28;20026;-72
2023/06/10 13:02:44;;;;;;;7.63;4.63;;;23.50;87.40;;;;;;4992797;28;20030;-72
2023/06/10 13:05:09;;;;;;;5.40;4.90;;;23.50;87.60;;;;;;4992589;28;20092;-72
2023/06/10 13:07:35;;;;;;;5.53;4.70;;;23.50;88.40;;;;;;5054785;28;20023;-73
2023/06/10 13:10:01;;;;;;;6.10;4.82;;;23.40;87.50;;;;;;5095291;28;20107;-72
2023/06/10 13:12:30;;;;;;;7.72;4.70;;;23.40;87.30;;;;;;5095005;28;20021;-72
2023/06/10 13:14:56;;;;;;;7.40;4.90;;;23.40;86.30;;;;;;5095023;28;20052;-72
2023/06/10 13:17:22;;;;;;;5.25;4.75;;;23.40;86.60;;;;;;5094953;28;20052;-73
2023/06/10 13:19:48;;;;;;;5.78;5.07;;;23.40;86.90;;;;;;5095031;28;20054;-73
2023/06/10 13:22:14;;;;;;;5.63;5.03;;;23.40;87.10;;;;;;5094948;28;20024;-73
2023/06/10 13:24:40;;;;;;;5.70;4.60;;;23.40;87.40;;;;;;5094574;28;20038;-73
2023/06/10 13:27:06;;;;;;;5.90;5.30;;;23.30;88.30;;;;;;5094750;28;20020;-71
2023/06/10 13:29:32;;;;;;;8.82;5.38;;;23.30;89.30;;;;;;5094944;28;20035;-73
2023/06/10 13:31:58;;;;;;;7.30;6.00;;;23.30;90.00;;;;;;5094928;28;20024;-73
2023/06/10 13:34:24;;;;;;;8.55;6.15;;;23.30;90.60;;;;;;5094815;28;20439;-73
2023/06/10 13:36:49;;;;;;;7.80;5.90;;;23.30;91.00;;;;;;5094616;28;20016;-73
2023/06/10 13:39:15;;;;;;;8.30;5.93;;;23.30;91.40;;;;;;5094425;28;20024;-73
2023/06/10 13:41:41;;;;;;;9.80;6.13;;;23.20;91.90;;;;;;5094224;28;20028;-73
2023/06/10 13:44:07;;;;;;;6.93;6.00;;;23.20;92.10;;;;;;5091612;28;20051;-73
2023/06/10 13:46:33;;;;;;;8.60;6.50;;;23.20;92.10;;;;;;5092088;28;20031;-72
2023/06/10 13:48:58;;;;;;;10.75;5.57;;;23.20;92.40;;;;;;5088136;28;20051;-73
2023/06/10 13:51:24;;;;;;;8.35;6.05;;;23.10;92.50;;;;;;4988664;28;20422;-72
2023/06/10 13:53:51;;;;;;;10.07;5.53;;;23.10;92.40;;;;;;4989627;28;20474;-72
2023/06/10 13:56:18;;;;;;;10.27;6.22;;;23.10;92.70;;;;;;4991368;28;20029;-73
2023/06/10 13:58:45;;;;;;;9.45;6.35;;;23.10;92.80;;;;;;4991759;28;20037;-72
2023/06/10 14:01:10;;;;;;;6.93;5.38;;;23.10;93.10;;;;;;4991342;28;20062;-72
2023/06/10 14:03:36;;;;;;;6.72;5.53;;;23.10;93.10;;;;;;4990955;28;20482;-72
2023/06/10 14:06:02;;;;;;;8.50;5.95;;;23.10;93.10;;;;;;4990467;28;20045;-72
2023/06/10 14:08:27;;;;;;;8.13;5.97;;;23.10;93.10;;;;;;4990568;28;20027;-71
2023/06/10 14:10:53;;;;;;;7.97;6.50;;;23.10;93.50;;;;;;4991178;28;20099;-71
2023/06/10 14:13:19;;;;;;;7.30;5.75;;;23.10;93.70;;;;;;4991095;28;20022;-72
2023/06/10 14:15:45;;;;;;;10.27;5.75;;;23.10;93.70;;;;;;4991581;28;20032;-72
2023/06/10 14:18:11;;;;;;;6.57;5.40;;;23.10;93.70;;;;;;4991304;28;20076;-71
2023/06/10 14:20:36;;;;;;;11.07;6.13;;;23.10;93.60;;;;;;4990904;28;20105;-72
2023/06/10 14:23:02;;;;;;;6.85;5.50;;;23.10;93.50;;;;;;4991447;28;20129;-71
2023/06/10 14:25:28;;;;;;;5.38;4.95;;;23.10;93.60;;;;;;4991539;28;20489;-72
2023/06/10 14:27:53;;;;;;;5.53;4.72;;;23.10;93.30;;;;;;5043065;28;20035;-71
2023/06/10 14:30:19;;;;;;;6.50;4.18;;;23.20;93.20;;;;;;5092015;28;20523;-71
2023/06/10 14:32:45;;;;;;;6.70;5.15;;;23.20;93.10;;;;;;5093302;28;20028;-71
2023/06/10 14:35:10;;;;;;;6.35;5.13;;;23.20;92.90;;;;;;5065245;28;20027;-70
2023/06/10 14:37:36;;;;;;;5.20;4.60;;;23.20;92.90;;;;;;5046903;28;20028;-70
2023/06/10 14:40:04;;;;;;;6.88;4.75;;;23.20;92.80;;;;;;5093064;28;20024;-70
2023/06/10 14:42:31;;;;;;;14.80;5.72;;;23.20;92.70;;;;;;5092904;28;20090;-70
2023/06/10 14:44:57;;;;;;;4.80;4.30;;;23.20;92.70;;;;;;5092988;28;20056;-70
2023/06/10 14:47:23;;;;;;;5.05;4.55;;;23.20;92.90;;;;;;5093598;28;20099;-71
2023/06/10 14:49:49;;;;;;;6.95;4.75;;;23.20;92.80;;;;;;5092862;28;20028;-70
2023/06/10 14:52:14;;;;;;;5.38;4.88;;;23.30;92.70;;;;;;5093173;28;20065;-71
2023/06/10 14:54:40;;;;;;;9.88;4.80;;;23.30;92.60;;;;;;5092994;28;20035;-71
2023/06/10 14:57:06;;;;;;;4.80;4.25;;;23.30;92.60;;;;;;5093149;28;20020;-72
2023/06/10 14:59:33;;;;;;;5.75;4.70;;;23.30;92.60;;;;;;5093141;28;20035;-70
2023/06/10 15:02:00;;;;;;;4.85;4.45;;;23.30;92.60;;;;;;5092820;28;20024;-71
2023/06/10 15:04:26;;;;;;;4.95;4.25;;;23.30;92.60;;;;;;5092806;28;20115;-72
2023/06/10 15:06:52;;;;;;;4.50;4.10;;;23.30;92.30;;;;;;5092755;28;20074;-71
2023/06/10 15:09:18;;;;;;;4.53;4.10;;;23.30;92.30;;;;;;5092831;28;20024;-70
2023/06/10 15:11:43;;;;;;;4.63;3.80;;;23.30;92.10;;;;;;5092909;28;20426;-71
2023/06/10 15:14:09;;;;;;;8.07;4.28;;;23.30;92.10;;;;;;5093082;28;20031;-72
2023/06/10 15:16:35;;;;;;;4.57;4.18;;;23.30;92.10;;;;;;5093047;28;20032;-71
2023/06/10 15:19:01;;;;;;;4.30;3.90;;;23.20;92.00;;;;;;5092505;28;20380;-71
2023/06/10 15:21:26;;;;;;;4.22;3.60;;;23.30;91.80;;;;;;5092491;28;20024;-72
2023/06/10 15:23:53;;;;;;;8.15;3.90;;;23.40;91.60;;;;;;5092195;28;20116;-72
2023/06/10 15:26:18;;;;;;;7.97;4.30;;;23.50;91.60;;;;;;5092387;28;20032;-70
2023/06/10 15:28:44;;;;;;;4.97;3.30;;;23.50;91.40;;;;;;5092733;28;20051;-72
2023/06/10 15:31:09;;;;;;;6.50;3.45;;;23.60;91.20;;;;;;5092132;28;20017;-71
2023/06/10 15:33:35;;;;;;;6.97;3.88;;;23.70;90.90;;;;;;5092312;28;20365;-71
2023/06/10 15:36:01;;;;;;;7.90;4.10;;;23.80;90.90;;;;;;5092831;28;20059;-71
2023/06/10 15:38:27;;;;;;;4.40;3.60;;;23.90;91.00;;;;;;5092298;28;20420;-71
2023/06/10 15:40:53;;;;;;;14.45;5.18;;;23.90;90.90;;;;;;5092215;28;20468;-72
2023/06/10 15:43:19;;;;;;;10.63;4.65;;;24.00;90.90;;;;;;5092437;28;20040;-70
2023/06/10 15:45:44;;;;;;;8.18;3.85;;;24.10;90.90;;;;;;5092693;28;20032;-70
2023/06/10 15:48:10;;;;;;;5.32;3.97;;;24.20;90.80;;;;;;5004895;28;20155;-72
2023/06/10 15:50:36;;;;;;;4.20;3.78;;;24.30;90.70;;;;;;4990398;28;20026;-71
2023/06/10 15:53:01;;;;;;;6.60;4.10;;;24.30;90.60;;;;;;4990314;28;20039;-72
2023/06/10 15:55:28;;;;;;;5.38;4.50;;;24.30;90.60;;;;;;4990501;28;20135;-71
2023/06/10 15:57:55;;;;;;;5.10;4.53;;;24.30;90.80;;;;;;4990465;28;20478;-71
2023/06/10 16:00:20;;;;;;;4.30;3.90;;;24.30;91.00;;;;;;4990371;28;20022;-72
2023/06/10 16:02:46;;;;;;;8.15;4.00;;;24.20;90.70;;;;;;4990335;28;20031;-72
2023/06/10 16:05:12;;;;;;;5.00;4.50;;;24.20;90.80;;;;;;4990242;28;20034;-73
2023/06/10 16:07:37;;;;;;;4.82;4.15;;;24.10;90.90;;;;;;4989060;28;20367;-72
2023/06/10 16:10:03;;;;;;;5.18;4.60;;;24.10;90.70;;;;;;4990531;28;20054;-72
2023/06/10 16:12:30;;;;;;;6.03;4.30;;;24.00;90.90;;;;;;4990371;28;20030;-71
2023/06/10 16:14:55;;;;;;;4.32;3.92;;;24.00;91.00;;;;;;4990433;28;20026;-71
2023/06/10 16:17:21;;;;;;;5.22;4.18;;;24.00;91.20;;;;;;4990070;28;20394;-72
2023/06/10 16:19:47;;;;;;;6.20;4.47;;;23.90;91.30;;;;;;4990217;28;20393;-72
2023/06/10 16:22:13;;;;;;;7.90;4.43;;;23.90;91.40;;;;;;4990255;28;20030;-71
2023/06/10 16:24:38;;;;;;;5.28;4.00;;;23.80;91.50;;;;;;4990182;28;20076;-72
2023/06/10 16:27:07;;;;;;;4.43;4.03;;;23.80;91.80;;;;;;4987774;28;20030;-71
2023/06/10 16:29:33;;;;;;;5.95;4.53;;;23.70;91.90;;;;;;4987335;28;20042;-73
2023/06/10 16:31:58;;;;;;;4.78;4.28;;;23.70;92.00;;;;;;4990438;28;20032;-72
2023/06/10 16:34:24;;;;;;;5.25;4.50;;;23.70;92.10;;;;;;4992835;28;20144;-71
2023/06/10 16:36:50;;;;;;;4.40;4.00;;;23.60;92.00;;;;;;4993142;28;20083;-71
2023/06/10 16:39:15;;;;;;;4.70;4.30;;;23.60;91.90;;;;;;4993009;28;20026;-71
2023/06/10 16:41:41;;;;;;;4.78;4.20;;;23.60;91.70;;;;;;4992785;28;20018;-73
2023/06/10 16:44:07;;;;;;;4.05;3.67;;;23.60;91.80;;;;;;4992956;28;20095;-72
2023/06/10 16:46:32;;;;;;;4.82;3.90;;;23.50;91.80;;;;;;4992998;28;20482;-73
2023/06/10 16:48:58;;;;;;;5.20;4.70;;;23.50;92.00;;;;;;4992836;28;20083;-73
2023/06/10 16:51:24;;;;;;;7.20;5.70;;;23.50;92.20;;;;;;4992843;28;20554;-72
2023/06/10 16:53:50;;;;;;;6.18;5.57;;;23.40;92.50;;;;;;4993589;28;20026;-72
2023/06/10 16:56:16;;;;;;;7.47;5.28;;;23.40;92.80;;;;;;4992709;28;20027;-72
2023/06/10 16:58:41;;;;;;;6.00;4.63;;;23.40;92.90;;;;;;4993018;28;20041;-72